Time;durP1;ratioP1;P1;durP2;ratioP2;P2;SDS_P1;SDS_P2;PMS_P1;PMS_P2;Temp;Humidity;BMP_temperature;BMP_pressure;BME280_temperature;BME280_humidity;BME280_pressure;Samples;Min_cycle;Max_cycle;Signal;HPM_P1;HPM_P2
2023/10/30 00:02:15;;;;;;;2.97;0.70;;;;;;;12.89;80.02;99294.88;7393663;19;20371;-74
2023/10/30 00:04:42;;;;;;;3.58;0.85;;;;;;;12.86;80.27;99293.47;7389333;19;20365;-74
2023/10/30 00:07:09;;;;;;;2.50;0.77;;;;;;;12.82;80.47;99303.75;7394859;19;20356;-74
2023/10/30 00:09:36;;;;;;;3.95;0.77;;;;;;;12.81;80.83;99293.31;7390350;19;20349;-74
2023/10/30 00:12:03;;;;;;;3.50;0.70;;;;;;;12.80;80.94;99299.69;7387982;19;20715;-74
2023/10/30 00:14:31;;;;;;;2.65;0.80;;;;;;;12.81;80.87;99311.94;7386943;19;20432;-75
2023/10/30 00:16:58;;;;;;;6.30;1.13;;;;;;;12.79;80.97;99314.84;7389215;19;20333;-75
2023/10/30 00:19:25;;;;;;;4.25;0.98;;;;;;;12.83;80.97;99321.31;7389290;19;20454;-74
2023/10/30 00:21:52;;;;;;;4.45;1.13;;;;;;;12.83;80.97;99325.84;7392038;19;20357;-74
2023/10/30 00:24:19;;;;;;;5.90;0.90;;;;;;;12.84;80.80;99324.81;7394416;19;20864;-74
2023/10/30 00:26:46;;;;;;;3.60;0.80;;;;;;;12.85;80.93;99340.53;7390456;19;20399;-74
2023/10/30 00:29:13;;;;;;;3.53;1.00;;;;;;;12.89;80.73;99330.28;7390155;19;20366;-74
2023/10/30 00:31:39;;;;;;;4.90;1.00;;;;;;;12.91;80.88;99327.41;7387393;19;20364;-74
2023/10/30 00:34:11;;;;;;;4.10;1.27;;;;;;;12.91;80.66;99319.41;7388556;19;20332;-74
2023/10/30 00:36:38;;;;;;;4.13;1.10;;;;;;;12.88;80.73;99339.31;7393631;19;20373;-74
2023/10/30 00:39:05;;;;;;;3.85;0.80;;;;;;;12.92;80.85;99342.31;7388496;19;20368;-74
2023/10/30 00:41:32;;;;;;;4.20;1.17;;;;;;;12.94;80.59;99350.91;7392462;19;20364;-73
2023/10/30 00:43:59;;;;;;;3.67;1.08;;;;;;;12.92;80.72;99355.63;7391755;19;20700;-74
2023/10/30 00:46:26;;;;;;;4.53;0.80;;;;;;;12.93;80.58;99352.75;7391268;19;20364;-74
2023/10/30 00:48:53;;;;;;;3.85;0.98;;;;;;;12.94;80.53;99343.75;7393395;19;20345;-74
2023/10/30 00:51:20;;;;;;;5.05;1.00;;;;;;;12.99;80.34;99353.72;7388552;19;20873;-74
2023/10/30 00:53:47;;;;;;;3.35;0.70;;;;;;;12.98;80.28;99347.56;7390481;19;20369;-74
2023/10/30 00:56:14;;;;;;;3.50;0.90;;;;;;;13.01;80.28;99344.47;7387931;19;20376;-74
2023/10/30 00:58:41;;;;;;;5.45;0.90;;;;;;;12.99;80.08;99335.09;7388290;19;20365;-74
2023/10/30 01:01:10;;;;;;;3.67;0.90;;;;;;;13.00;80.14;99356.13;7391598;19;20458;-74
2023/10/30 01:03:37;;;;;;;4.03;0.90;;;;;;;13.01;79.95;99351.66;7391907;19;20931;-74
2023/10/30 01:06:04;;;;;;;2.78;0.80;;;;;;;13.03;80.03;99355.69;7389347;19;20677;-77
2023/10/30 01:08:31;;;;;;;3.70;1.17;;;;;;;13.04;80.03;99359.16;7388757;19;20333;-74
2023/10/30 01:10:58;;;;;;;5.05;1.00;;;;;;;13.10;79.82;99357.47;7389639;19;20435;-74
2023/10/30 01:13:25;;;;;;;4.88;0.93;;;;;;;13.14;79.54;99369.31;7391826;19;20341;-74
2023/10/30 01:15:55;;;;;;;3.22;0.85;;;;;;;13.16;79.35;99368.03;7388080;19;20357;-75
2023/10/30 01:18:23;;;;;;;4.50;1.00;;;;;;;13.19;79.00;99375.56;7390884;19;20381;-74
2023/10/30 01:20:50;;;;;;;6.90;1.60;;;;;;;13.23;79.00;99368.75;7389323;19;20368;-74
2023/10/30 01:23:17;;;;;;;6.05;1.10;;;;;;;13.29;78.96;99367.09;7389577;19;20436;-74
2023/10/30 01:25:47;;;;;;;4.55;1.08;;;;;;;13.27;78.63;99364.59;7388565;19;20388;-74
2023/10/30 01:28:14;;;;;;;4.22;1.23;;;;;;;13.29;78.79;99383.06;7390927;19;20381;-74
2023/10/30 01:30:41;;;;;;;6.57;1.02;;;;;;;13.29;78.78;99360.94;7391443;19;20681;-74
2023/10/30 01:33:09;;;;;;;4.55;1.38;;;;;;;13.26;78.59;99367.50;7389796;19;20566;-74
2023/10/30 01:35:36;;;;;;;3.80;0.95;;;;;;;13.29;78.65;99372.41;7388847;19;20995;-74
2023/10/30 01:38:03;;;;;;;5.95;1.48;;;;;;;13.25;78.72;99380.00;7390405;19;20367;-74
2023/10/30 01:40:30;;;;;;;3.50;0.98;;;;;;;13.22;78.91;99361.00;7389981;19;20464;-75
2023/10/30 01:42:57;;;;;;;5.40;1.00;;;;;;;13.21;79.02;99370.03;7389217;19;20454;-74
2023/10/30 01:45:24;;;;;;;4.15;1.00;;;;;;;13.18;79.24;99373.16;7389266;19;20403;-75
2023/10/30 01:47:50;;;;;;;5.57;1.15;;;;;;;13.18;79.07;99370.47;7388525;19;20378;-73
2023/10/30 01:50:19;;;;;;;4.32;1.05;;;;;;;13.18;79.26;99365.16;7386114;19;20700;-74
2023/10/30 01:52:46;;;;;;;4.93;1.30;;;;;;;13.17;79.24;99369.66;7386021;19;20441;-74
2023/10/30 01:55:14;;;;;;;4.88;1.17;;;;;;;13.18;79.47;99383.78;7393016;19;20381;-74
2023/10/30 01:57:42;;;;;;;3.90;1.10;;;;;;;13.13;79.45;99384.44;7390382;19;20856;-74
2023/10/30 02:00:11;;;;;;;4.40;1.00;;;;;;;13.12;79.63;99392.69;7389387;19;20781;-74
2023/10/30 02:02:41;;;;;;;4.85;1.05;;;;;;;13.10;79.87;99384.09;7384081;19;20360;-74
2023/10/30 02:05:09;;;;;;;5.10;1.20;;;;;;;13.03;80.13;99377.00;7388304;19;20348;-74
2023/10/30 02:07:36;;;;;;;6.55;1.33;;;;;;;13.01;80.19;99371.09;7389036;19;21085;-74
2023/10/30 02:10:04;;;;;;;4.03;1.30;;;;;;;12.99;80.22;99373.16;7385116;19;20335;-74
2023/10/30 02:12:34;;;;;;;4.00;1.17;;;;;;;13.00;80.24;99369.44;7390280;19;20341;-74
2023/10/30 02:15:01;;;;;;;5.03;1.00;;;;;;;12.98;80.42;99373.38;7388534;19;20444;-74
2023/10/30 02:17:28;;;;;;;3.92;1.00;;;;;;;12.97;80.56;99374.41;7390942;19;20916;-74
2023/10/30 02:19:55;;;;;;;4.47;1.02;;;;;;;12.96;80.62;99375.44;7384883;19;20706;-74
2023/10/30 02:22:21;;;;;;;5.57;1.30;;;;;;;12.93;80.69;99368.72;7388101;19;20381;-74
2023/10/30 02:24:48;;;;;;;6.95;1.30;;;;;;;12.92;80.87;99372.44;7389591;19;20972;-74
2023/10/30 02:27:17;;;;;;;3.40;0.90;;;;;;;12.88;81.11;99371.25;7388723;19;20344;-74
2023/10/30 02:29:45;;;;;;;7.63;1.67;;;;;;;12.89;81.08;99372.06;7397714;19;20385;-74
2023/10/30 02:32:12;;;;;;;6.00;1.33;;;;;;;12.87;81.32;99368.81;7394510;19;20365;-74
2023/10/30 02:34:39;;;;;;;5.60;1.30;;;;;;;12.87;81.28;99363.47;7394946;19;20435;-74
2023/10/30 02:37:06;;;;;;;5.53;1.23;;;;;;;12.86;81.35;99357.34;7397840;19;20492;-76
2023/10/30 02:39:34;;;;;;;5.90;1.10;;;;;;;12.84;81.42;99370.06;7396564;19;20364;-74
2023/10/30 02:42:02;;;;;;;7.03;1.23;;;;;;;12.86;81.25;99362.69;7392782;19;20379;-74
2023/10/30 02:44:30;;;;;;;5.70;1.30;;;;;;;12.83;81.44;99363.91;7394364;19;20352;-74
2023/10/30 02:46:57;;;;;;;4.07;1.35;;;;;;;12.81;81.60;99366.00;7392698;19;20385;-73
2023/10/30 02:49:25;;;;;;;4.40;1.30;;;;;;;12.79;81.48;99369.91;7395053;19;20340;-74
2023/10/30 02:51:52;;;;;;;6.40;1.20;;;;;;;12.79;81.47;99352.09;7395804;19;21289;-74
2023/10/30 02:54:18;;;;;;;4.32;1.33;;;;;;;12.81;81.31;99354.53;7395366;19;20360;-74
2023/10/30 02:56:46;;;;;;;5.10;1.17;;;;;;;12.81;81.46;99359.84;7395842;19;20356;-74
2023/10/30 02:59:13;;;;;;;5.28;1.00;;;;;;;12.81;81.52;99355.34;7394853;19;20368;-74
2023/10/30 03:01:41;;;;;;;5.05;1.20;;;;;;;12.80;81.54;99369.69;7394040;19;20868;-75
2023/10/30 03:04:09;;;;;;;3.75;0.98;;;;;;;12.81;81.46;99375.81;7390818;19;20364;-74
2023/10/30 03:06:36;;;;;;;5.63;1.40;;;;;;;12.81;81.46;99378.47;7392452;19;20353;-74
2023/10/30 03:09:03;;;;;;;5.95;1.38;;;;;;;12.77;81.60;99370.16;7395508;19;20371;-74
2023/10/30 03:11:30;;;;;;;5.35;1.10;;;;;;;12.75;81.65;99384.69;7392516;19;20372;-74
2023/10/30 03:13:57;;;;;;;3.80;1.20;;;;;;;12.78;81.61;99376.28;7395336;19;20434;-74
2023/10/30 03:16:24;;;;;;;5.70;1.02;;;;;;;12.76;81.66;99378.34;7392296;19;20475;-74
2023/10/30 03:18:51;;;;;;;5.00;1.50;;;;;;;12.74;81.74;99391.06;7395790;19;20364;-74
2023/10/30 03:21:19;;;;;;;3.75;1.20;;;;;;;12.69;81.98;99381.06;7387749;19;20435;-74
2023/10/30 03:23:46;;;;;;;7.90;1.27;;;;;;;12.67;82.06;99377.81;7391432;19;20368;-74
2023/10/30 03:26:12;;;;;;;3.87;1.10;;;;;;;12.65;82.21;99370.06;7393552;19;20422;-74
2023/10/30 03:28:39;;;;;;;4.18;0.93;;;;;;;12.70;82.04;99369.38;7394571;19;20372;-74
2023/10/30 03:31:08;;;;;;;6.53;1.30;;;;;;;12.64;81.88;99381.75;7391516;19;20352;-74
2023/10/30 03:33:35;;;;;;;5.00;0.93;;;;;;;12.67;82.20;99383.13;7394034;19;20894;-73
2023/10/30 03:36:03;;;;;;;4.38;1.20;;;;;;;12.68;82.17;99379.44;7393875;19;20368;-74
2023/10/30 03:38:30;;;;;;;7.00;1.55;;;;;;;12.70;82.17;99384.53;7393882;19;20415;-74
2023/10/30 03:40:57;;;;;;;5.45;1.20;;;;;;;12.70;82.16;99395.19;7392690;19;20398;-74
2023/10/30 03:43:24;;;;;;;4.80;1.13;;;;;;;12.74;82.11;99396.38;7396600;19;20368;-74
2023/10/30 03:45:52;;;;;;;5.93;1.05;;;;;;;12.74;82.10;99385.72;7392689;19;20340;-74
2023/10/30 03:48:19;;;;;;;5.43;1.15;;;;;;;12.73;82.25;99402.72;7394058;19;20697;-74
2023/10/30 03:50:49;;;;;;;6.50;1.20;;;;;;;12.75;82.07;99405.97;7395268;19;20365;-74
2023/10/30 03:53:16;;;;;;;5.72;1.20;;;;;;;12.72;82.18;99403.75;7391890;19;20373;-74
2023/10/30 03:55:43;;;;;;;6.00;1.50;;;;;;;12.74;82.22;99401.69;7392459;19;20701;-74
2023/10/30 03:58:10;;;;;;;6.30;1.90;;;;;;;12.71;82.35;99420.75;7393735;19;20428;-75
2023/10/30 04:00:37;;;;;;;5.80;1.15;;;;;;;12.73;82.23;99408.03;7392533;19;20368;-74
2023/10/30 04:03:03;;;;;;;6.65;1.10;;;;;;;12.74;82.44;99409.69;7393180;19;20382;-74
2023/10/30 04:05:30;;;;;;;6.13;1.15;;;;;;;12.72;82.50;99404.56;7395056;19;20368;-74
2023/10/30 04:07:57;;;;;;;7.35;1.60;;;;;;;12.72;82.25;99398.44;7394612;19;20880;-74
2023/10/30 04:10:24;;;;;;;5.33;1.37;;;;;;;12.70;82.43;99405.81;7393349;19;20364;-73
2023/10/30 04:12:51;;;;;;;5.05;1.30;;;;;;;12.72;82.47;99409.88;7392839;19;20368;-74
2023/10/30 04:15:18;;;;;;;5.07;1.30;;;;;;;12.69;82.58;99402.34;7394138;19;20377;-74
2023/10/30 04:17:45;;;;;;;5.25;1.08;;;;;;;12.69;82.62;99401.53;7389357;19;20356;-74
2023/10/30 04:20:12;;;;;;;4.50;1.30;;;;;;;12.67;82.74;99406.28;7393423;19;20375;-74
2023/10/30 04:22:39;;;;;;;4.85;1.00;;;;;;;12.70;82.56;99395.19;7393354;19;20352;-74
2023/10/30 04:25:07;;;;;;;4.28;1.25;;;;;;;12.68;82.86;99399.91;7394618;19;20341;-74
2023/10/30 04:27:34;;;;;;;6.05;1.20;;;;;;;12.63;82.89;99401.38;7393873;19;20745;-74
2023/10/30 04:30:02;;;;;;;6.05;1.20;;;;;;;12.69;82.85;99401.53;7390578;19;20336;-74
2023/10/30 04:32:29;;;;;;;8.02;1.48;;;;;;;12.70;82.80;99392.53;7391587;19;20440;-74
2023/10/30 04:34:56;;;;;;;6.45;1.13;;;;;;;12.70;82.89;99395.19;7390914;19;20368;-74
2023/10/30 04:37:23;;;;;;;5.05;1.30;;;;;;;12.69;82.93;99417.50;7389266;19;20442;-74
2023/10/30 04:39:49;;;;;;;5.55;1.30;;;;;;;12.70;83.06;99409.28;7390257;19;20365;-74
2023/10/30 04:42:17;;;;;;;8.68;1.65;;;;;;;12.71;82.94;99397.63;7394220;19;20697;-74
2023/10/30 04:44:44;;;;;;;6.77;1.50;;;;;;;12.72;83.08;99398.44;7392754;19;20372;-74
2023/10/30 04:47:10;;;;;;;5.55;1.50;;;;;;;12.73;82.95;99398.22;7390954;19;20336;-74
2023/10/30 04:49:38;;;;;;;6.95;1.65;;;;;;;12.74;83.06;99391.06;7389708;19;20368;-74
2023/10/30 04:52:05;;;;;;;8.03;2.10;;;;;;;12.72;83.06;99387.78;7392162;19;20818;-74
2023/10/30 04:54:32;;;;;;;6.82;1.30;;;;;;;12.73;83.17;99390.25;7393438;19;20428;-74
2023/10/30 04:56:58;;;;;;;7.53;1.63;;;;;;;12.72;83.31;99395.78;7389017;19;20360;-74
2023/10/30 04:59:25;;;;;;;4.65;1.38;;;;;;;12.68;83.52;99391.94;7388635;19;20408;-74
2023/10/30 05:01:52;;;;;;;3.25;1.25;;;;;;;12.64;83.74;99405.69;7389177;19;20364;-73
2023/10/30 05:04:19;;;;;;;5.55;1.25;;;;;;;12.60;83.91;99420.47;7390634;19;20460;-74
2023/10/30 05:06:48;;;;;;;6.65;1.20;;;;;;;12.67;83.82;99404.44;7392552;19;20360;-74
2023/10/30 05:09:15;;;;;;;5.05;1.35;;;;;;;12.65;83.82;99409.16;7391584;19;20370;-73
2023/10/30 05:11:41;;;;;;;5.17;1.53;;;;;;;12.60;83.99;99407.16;7389877;19;20406;-74
2023/10/30 05:14:08;;;;;;;7.88;1.50;;;;;;;12.67;83.93;99411.59;7389436;19;20379;-73
2023/10/30 05:16:35;;;;;;;6.30;1.40;;;;;;;12.69;83.87;99414.81;7387082;19;20347;-73
2023/10/30 05:19:02;;;;;;;7.03;1.50;;;;;;;12.70;83.80;99411.97;7390562;19;20348;-74
2023/10/30 05:21:29;;;;;;;5.87;1.20;;;;;;;12.72;83.71;99409.09;7391195;19;20697;-73
2023/10/30 05:23:56;;;;;;;5.30;1.23;;;;;;;12.75;83.74;99404.16;7391160;19;20353;-74
2023/10/30 05:26:23;;;;;;;4.35;1.20;;;;;;;12.75;83.61;99411.28;7391999;19;20383;-75
2023/10/30 05:28:50;;;;;;;6.00;1.27;;;;;;;12.74;83.74;99397.19;7391493;19;20880;-74
2023/10/30 05:31:16;;;;;;;4.90;1.20;;;;;;;12.76;83.60;99399.63;7390840;19;20378;-74
2023/10/30 05:33:43;;;;;;;8.23;1.50;;;;;;;12.79;83.62;99396.50;7386972;19;20417;-74
2023/10/30 05:36:10;;;;;;;6.10;1.42;;;;;;;12.79;83.70;99399.16;7391154;19;20373;-74
2023/10/30 05:38:38;;;;;;;7.07;1.47;;;;;;;12.74;83.74;99401.69;7389070;19;21003;-74
2023/10/30 05:41:04;;;;;;;3.55;1.13;;;;;;;12.76;83.79;99399.63;7391745;19;20366;-74
2023/10/30 05:43:32;;;;;;;11.73;1.70;;;;;;;12.73;83.89;99405.38;7390866;19;20896;-74
2023/10/30 05:45:59;;;;;;;4.83;1.20;;;;;;;12.75;83.70;99404.16;7389606;19;20367;-74
2023/10/30 05:48:26;;;;;;;7.82;1.70;;;;;;;12.78;83.75;99402.88;7392013;19;20382;-74
2023/10/30 05:50:53;;;;;;;5.85;1.25;;;;;;;12.75;83.78;99403.31;7387789;19;20376;-74
2023/10/30 05:53:20;;;;;;;5.72;1.40;;;;;;;12.72;83.50;99403.75;7387879;19;20356;-75
2023/10/30 05:55:47;;;;;;;5.00;1.17;;;;;;;12.75;83.77;99392.66;7386638;19;20336;-74
2023/10/30 05:58:14;;;;;;;5.85;1.40;;;;;;;12.77;83.63;99404.75;7388686;19;20461;-74
2023/10/30 06:00:40;;;;;;;4.97;1.27;;;;;;;12.78;83.65;99397.56;7389563;19;20426;-74
2023/10/30 06:03:09;;;;;;;5.85;1.20;;;;;;;12.75;83.65;99398.81;7386655;19;20404;-74
2023/10/30 06:05:36;;;;;;;5.97;1.40;;;;;;;12.78;83.67;99408.19;7389234;19;20389;-74
2023/10/30 06:08:03;;;;;;;5.68;1.58;;;;;;;12.76;83.40;99411.06;7390031;19;20359;-73
2023/10/30 06:10:30;;;;;;;9.77;1.30;;;;;;;12.76;83.51;99404.94;7385240;19;20360;-73
2023/10/30 06:12:57;;;;;;;5.70;1.30;;;;;;;12.76;83.57;99416.41;7382681;19;20352;-73
2023/10/30 06:15:23;;;;;;;6.88;1.30;;;;;;;12.78;83.45;99434.81;7387996;19;20389;-73
2023/10/30 06:17:50;;;;;;;7.20;1.60;;;;;;;12.74;83.41;99431.78;7389176;19;20373;-73
2023/10/30 06:20:17;;;;;;;4.90;1.35;;;;;;;12.74;83.56;99438.94;7389820;19;20337;-73
2023/10/30 06:22:44;;;;;;;7.13;1.50;;;;;;;12.75;83.52;99425.44;7389438;19;20352;-73
2023/10/30 06:25:10;;;;;;;4.05;1.10;;;;;;;12.74;83.57;99439.75;7388006;19;20337;-73
2023/10/30 06:27:40;;;;;;;7.22;1.55;;;;;;;12.74;83.51;99441.59;7382838;19;20360;-73
2023/10/30 06:30:08;;;;;;;4.90;1.17;;;;;;;12.74;83.52;99452.25;7388336;19;20355;-73
2023/10/30 06:32:35;;;;;;;8.50;1.35;;;;;;;12.72;83.66;99456.97;7387032;19;20353;-73
2023/10/30 06:35:02;;;;;;;7.35;1.38;;;;;;;12.71;83.70;99455.34;7387709;19;20664;-73
2023/10/30 06:37:29;;;;;;;9.38;1.48;;;;;;;12.69;83.83;99457.41;7388250;19;20363;-73
2023/10/30 06:39:56;;;;;;;5.13;1.35;;;;;;;12.71;83.86;99455.34;7387680;19;20368;-73
2023/10/30 06:42:23;;;;;;;10.65;2.55;;;;;;;12.69;84.10;99462.72;7388184;19;20368;-73
2023/10/30 06:44:50;;;;;;;7.50;1.60;;;;;;;12.69;83.87;99473.38;7386132;19;20418;-74
2023/10/30 06:47:17;;;;;;;6.45;1.70;;;;;;;12.69;83.99;99470.69;7387651;19;20978;-73
2023/10/30 06:49:44;;;;;;;6.13;1.30;;;;;;;12.68;84.09;99471.75;7386448;19;20932;-74
2023/10/30 06:52:11;;;;;;;8.50;1.60;;;;;;;12.69;83.89;99474.19;7381661;19;20391;-74
2023/10/30 06:54:38;;;;;;;6.57;1.50;;;;;;;12.72;83.94;99472.94;7390499;19;20371;-73
2023/10/30 06:57:05;;;;;;;4.15;1.20;;;;;;;12.76;83.77;99468.81;7389424;19;20381;-74
2023/10/30 06:59:32;;;;;;;6.88;1.60;;;;;;;12.79;83.54;99485.16;7384784;19;20944;-73
2023/10/30 07:01:59;;;;;;;5.88;1.33;;;;;;;12.84;83.48;99482.66;7387979;19;20431;-74
2023/10/30 07:04:26;;;;;;;6.97;1.57;;;;;;;12.87;83.33;99481.38;7386147;19;20854;-74
2023/10/30 07:06:53;;;;;;;6.90;1.48;;;;;;;12.93;83.23;99485.84;7386680;19;20372;-74
2023/10/30 07:09:20;;;;;;;6.18;1.20;;;;;;;12.95;83.20;99483.78;7385158;19;20488;-74
2023/10/30 07:11:47;;;;;;;4.97;1.60;;;;;;;12.97;83.09;99487.03;7387606;19;20380;-74
2023/10/30 07:14:14;;;;;;;5.90;1.65;;;;;;;12.95;83.20;99489.09;7393999;19;20668;-74
2023/10/30 07:16:40;;;;;;;8.13;1.45;;;;;;;12.96;83.12;99490.75;7394515;19;20371;-74
2023/10/30 07:19:26;;;;;;;6.20;1.58;;;;;;;12.93;83.32;99498.34;7395077;19;20353;-74
2023/10/30 07:21:53;;;;;;;5.73;1.20;;;;;;;12.91;83.48;99498.56;7393973;19;20889;-73
2023/10/30 07:24:20;;;;;;;6.22;1.35;;;;;;;12.87;83.69;99494.69;7394343;19;20372;-73
2023/10/30 07:26:47;;;;;;;7.45;1.40;;;;;;;12.90;83.76;99502.25;7390761;19;20368;-73
2023/10/30 07:29:14;;;;;;;7.63;1.60;;;;;;;12.85;84.01;99491.44;7389480;19;20379;-73
2023/10/30 07:31:41;;;;;;;5.30;1.35;;;;;;;12.87;84.00;99485.91;7395782;19;20370;-73
2023/10/30 07:34:08;;;;;;;7.40;1.50;;;;;;;12.85;84.16;99489.59;7394740;19;20368;-73
2023/10/30 07:36:34;;;;;;;6.53;1.38;;;;;;;12.85;84.48;99488.78;7391813;19;20365;-73
2023/10/30 07:39:02;;;;;;;8.00;1.48;;;;;;;12.87;84.32;99486.72;7390202;19;20372;-73
2023/10/30 07:41:28;;;;;;;6.43;1.93;;;;;;;12.88;84.38;99488.34;7386407;19;21062;-72
2023/10/30 07:43:55;;;;;;;7.18;1.70;;;;;;;12.90;84.37;99478.31;7396094;19;20677;-73
2023/10/30 07:46:22;;;;;;;6.53;1.83;;;;;;;12.90;84.54;99480.97;7393031;19;20414;-73
2023/10/30 07:48:49;;;;;;;4.53;1.55;;;;;;;12.92;84.49;99478.91;7392360;19;20427;-73
2023/10/30 07:51:16;;;;;;;6.10;1.60;;;;;;;12.98;84.27;99478.00;7397165;19;20344;-72
2023/10/30 07:53:43;;;;;;;5.97;1.90;;;;;;;13.06;84.07;99463.59;7391823;19;20484;-72
2023/10/30 07:56:10;;;;;;;10.60;1.95;;;;;;;13.09;83.75;99475.63;7395793;19;20385;-73
2023/10/30 07:58:37;;;;;;;6.18;2.47;;;;;;;13.14;83.65;99475.81;7396352;19;20420;-73
2023/10/30 08:01:04;;;;;;;7.60;2.33;;;;;;;13.22;83.46;99476.31;7387901;19;20388;-73
2023/10/30 08:03:31;;;;;;;9.07;2.97;;;;;;;13.29;83.35;99478.94;7391050;19;20365;-73
2023/10/30 08:05:59;;;;;;;7.70;1.88;;;;;;;13.31;83.13;99490.19;7391028;19;20356;-73
2023/10/30 08:08:28;;;;;;;5.65;1.67;;;;;;;13.38;83.02;99484.78;7396145;19;20909;-73
2023/10/30 08:10:55;;;;;;;8.25;1.80;;;;;;;13.41;82.75;99487.81;7392458;19;20375;-73
2023/10/30 08:13:22;;;;;;;7.68;1.70;;;;;;;13.46;82.47;99487.94;7388888;19;20884;-73
2023/10/30 08:15:49;;;;;;;8.00;1.45;;;;;;;13.50;82.43;99490.19;7392406;19;20381;-72
2023/10/30 08:18:16;;;;;;;4.75;1.45;;;;;;;13.51;82.32;99491.78;7394103;19;20357;-73
2023/10/30 08:20:43;;;;;;;7.22;1.63;;;;;;;13.54;82.46;99486.03;7391791;19;20376;-73
2023/10/30 08:23:11;;;;;;;7.03;1.38;;;;;;;13.54;82.38;99497.50;7385694;19;20396;-73
2023/10/30 08:25:38;;;;;;;5.25;1.30;;;;;;;13.55;82.02;99487.66;7390001;19;20356;-73
2023/10/30 08:28:04;;;;;;;5.80;1.40;;;;;;;13.55;82.28;99484.97;7390621;19;20440;-73
2023/10/30 08:30:31;;;;;;;5.72;1.38;;;;;;;13.52;82.29;99486.25;7394442;19;20444;-73
2023/10/30 08:32:58;;;;;;;5.60;1.60;;;;;;;13.51;82.29;99492.59;7391614;19;20399;-73
2023/10/30 08:35:25;;;;;;;5.32;1.42;;;;;;;13.50;82.36;99500.84;7394825;19;20808;-73
2023/10/30 08:37:55;;;;;;;6.00;1.10;;;;;;;13.50;82.28;99509.63;7392923;19;20771;-73
2023/10/30 08:40:22;;;;;;;5.35;1.15;;;;;;;13.46;82.56;99514.59;7387775;19;20367;-73
2023/10/30 08:42:48;;;;;;;7.13;1.55;;;;;;;13.49;82.53;99515.19;7388131;19;20368;-73
2023/10/30 08:45:15;;;;;;;5.22;1.55;;;;;;;13.43;82.50;99517.72;7394822;19;20381;-73
2023/10/30 08:47:43;;;;;;;4.07;1.42;;;;;;;13.47;82.74;99518.06;7393947;19;20652;-77
2023/10/30 08:50:11;;;;;;;9.07;1.65;;;;;;;13.53;82.65;99527.03;7392542;19;20847;-77
2023/10/30 08:52:38;;;;;;;4.22;1.20;;;;;;;13.61;82.59;99518.72;7387930;19;20691;-76
2023/10/30 08:55:05;;;;;;;8.05;1.40;;;;;;;13.71;82.45;99521.69;7381597;19;20376;-78
2023/10/30 08:57:32;;;;;;;4.70;1.50;;;;;;;13.87;82.39;99539.72;7392473;19;20362;-78
2023/10/30 08:59:59;;;;;;;8.75;2.00;;;;;;;14.05;82.09;99530.06;7394828;19;20356;-79
2023/10/30 09:02:26;;;;;;;10.18;1.80;;;;;;;14.24;81.87;99523.63;7387506;19;20395;-78
2023/10/30 09:04:53;;;;;;;6.55;1.80;;;;;;;14.43;81.14;99532.38;7392469;19;20367;-78
2023/10/30 09:07:20;;;;;;;5.60;1.67;;;;;;;14.59;80.19;99525.59;7395844;19;20685;-78
2023/10/30 09:09:47;;;;;;;5.78;1.30;;;;;;;14.77;80.76;99534.53;7392849;19;20356;-78
2023/10/30 09:12:14;;;;;;;7.30;1.83;;;;;;;14.95;79.59;99539.78;7395499;19;20360;-78
2023/10/30 09:14:41;;;;;;;6.55;1.77;;;;;;;15.09;78.84;99533.16;7387483;19;20355;-78
2023/10/30 09:17:09;;;;;;;5.80;1.35;;;;;;;15.23;78.21;99527.56;7392812;19;20416;-78
2023/10/30 09:19:37;;;;;;;4.05;1.30;;;;;;;15.35;77.94;99533.72;7389470;19;20364;-78
2023/10/30 09:22:04;;;;;;;5.72;1.23;;;;;;;15.46;77.13;99532.88;7389163;19;20387;-78
2023/10/30 09:24:31;;;;;;;6.32;1.48;;;;;;;15.63;77.14;99532.97;7389854;19;20724;-78
2023/10/30 09:26:58;;;;;;;5.93;1.27;;;;;;;15.77;76.76;99530.88;7392065;19;20422;-78
2023/10/30 09:29:25;;;;;;;4.53;1.15;;;;;;;15.93;76.06;99526.63;7391743;19;20908;-78
2023/10/30 09:31:52;;;;;;;5.57;1.42;;;;;;;16.12;75.95;99532.59;7392536;19;20393;-78
2023/10/30 09:34:19;;;;;;;4.45;1.20;;;;;;;16.28;75.29;99526.47;7390817;19;20349;-78
2023/10/30 09:36:47;;;;;;;4.78;1.02;;;;;;;16.46;74.83;99530.78;7389001;19;20385;-79
2023/10/30 09:39:13;;;;;;;6.10;1.33;;;;;;;16.53;72.23;99538.63;7388119;19;20360;-79
2023/10/30 09:41:43;;;;;;;5.30;1.23;;;;;;;16.64;72.96;99537.78;7390259;19;20344;-78
2023/10/30 09:44:11;;;;;;;5.28;1.10;;;;;;;16.73;72.53;99542.72;7393077;19;20359;-78
2023/10/30 09:46:39;;;;;;;4.17;1.10;;;;;;;16.79;72.61;99547.09;7392042;19;20377;-77
2023/10/30 09:49:09;;;;;;;5.72;1.58;;;;;;;16.87;72.82;99547.53;7389339;19;20373;-77
2023/10/30 09:51:38;;;;;;;7.65;2.30;;;;;;;17.03;72.50;99551.25;7391934;19;20360;-77
2023/10/30 09:54:06;;;;;;;5.95;1.50;;;;;;;17.17;70.41;99553.56;7384879;19;20439;-78
2023/10/30 09:56:38;;;;;;;5.95;1.40;;;;;;;17.32;71.36;99545.78;7391164;19;20344;-78
2023/10/30 09:59:05;;;;;;;7.38;2.25;;;;;;;17.51;70.51;99544.41;7385722;19;20420;-77
2023/10/30 10:01:32;;;;;;;4.95;1.38;;;;;;;17.74;70.09;99545.22;7392229;19;20376;-77
2023/10/30 10:03:59;;;;;;;11.45;5.68;;;;;;;17.94;69.64;99547.38;7392656;19;20374;-78
2023/10/30 10:06:26;;;;;;;5.18;1.40;;;;;;;18.21;68.58;99554.59;7394773;19;20356;-78
2023/10/30 10:08:54;;;;;;;5.43;1.45;;;;;;;18.26;65.84;99552.78;7393988;19;20748;-78
2023/10/30 10:11:22;;;;;;;7.55;1.60;;;;;;;18.44;67.58;99553.47;7393369;19;20380;-78
2023/10/30 10:13:50;;;;;;;3.08;1.00;;;;;;;18.47;65.45;99544.94;7392264;19;20376;-78
2023/10/30 10:16:31;;;;;;;4.90;1.30;;;;;;;18.43;63.78;99554.56;7393061;19;20369;-78
2023/10/30 10:18:58;;;;;;;4.78;1.02;;;;;;;18.41;63.88;99556.69;7397537;19;20368;-78
2023/10/30 10:21:25;;;;;;;5.00;1.67;;;;;;;18.47;64.12;99561.84;7390614;19;20352;-79
2023/10/30 10:23:53;;;;;;;5.78;1.20;;;;;;;18.69;64.90;99553.69;7387875;19;20364;-78
2023/10/30 10:26:29;;;;;;;3.72;1.40;;;;;;;18.82;63.45;99552.50;7391611;19;20361;-78
2023/10/30 10:28:56;;;;;;;4.57;1.27;;;;;;;18.89;63.01;99553.09;7386501;19;20923;-78
2023/10/30 10:31:22;;;;;;;3.33;1.17;;;;;;;18.91;61.89;99556.34;7388337;19;20532;-78
2023/10/30 10:33:50;;;;;;;4.83;1.47;;;;;;;18.92;61.18;99554.44;7387479;19;20356;-78
2023/10/30 10:36:17;;;;;;;3.05;0.98;;;;;;;18.98;60.68;99566.84;7386657;19;20393;-78
2023/10/30 10:39:00;;;;;;;4.45;1.10;;;;;;;18.93;59.91;99556.06;7382178;19;20378;-78
2023/10/30 10:41:28;;;;;;;4.05;1.23;;;;;;;18.90;59.91;99559.28;7388524;19;20941;-78
2023/10/30 10:43:56;;;;;;;4.30;1.20;;;;;;;18.84;60.06;99554.94;7387402;19;20364;-78
2023/10/30 10:46:23;;;;;;;4.90;1.30;;;;;;;18.91;60.73;99545.59;7391132;19;20408;-78
2023/10/30 10:48:50;;;;;;;5.90;1.45;;;;;;;18.94;60.32;99545.06;7391471;19;20345;-78
2023/10/30 10:51:38;;;;;;;4.30;0.90;;;;;;;18.77;59.99;99544.38;7394461;19;20912;-78
2023/10/30 10:54:10;;;;;;;5.63;1.38;;;;;;;18.84;60.59;99533.44;7393320;19;20389;-78
2023/10/30 10:56:38;;;;;;;6.82;1.40;;;;;;;18.79;60.04;99526.16;7393031;19;20919;-79
2023/10/30 10:59:12;;;;;;;3.38;1.00;;;;;;;18.88;61.05;99526.47;7393330;19;20679;-78
2023/10/30 11:01:42;;;;;;;4.32;1.10;;;;;;;18.78;60.75;99529.06;7396110;19;20378;-78
2023/10/30 11:04:12;;;;;;;3.80;1.20;;;;;;;18.75;60.76;99517.75;7394760;19;20908;-78
2023/10/30 11:06:46;;;;;;;6.93;1.63;;;;;;;18.86;61.53;99525.94;7392926;19;20352;-78
2023/10/30 11:09:19;;;;;;;4.32;1.33;;;;;;;18.86;60.87;99526.72;7394813;19;21915;-78
2023/10/30 11:12:01;;;;;;;5.55;1.38;;;;;;;18.93;61.03;99518.44;7397044;19;20372;-79
2023/10/30 11:14:38;;;;;;;4.63;1.50;;;;;;;18.88;60.82;99513.03;7390296;19;20360;-79
2023/10/30 11:17:05;;;;;;;4.82;1.23;;;;;;;18.96;61.39;99507.19;7394192;19;21039;-79
2023/10/30 11:19:32;;;;;;;4.80;1.20;;;;;;;19.05;60.57;99513.69;7395695;19;20361;-79
2023/10/30 11:21:59;;;;;;;2.95;0.90;;;;;;;19.19;59.23;99510.53;7394677;19;21082;-79
2023/10/30 11:24:37;;;;;;;2.97;0.98;;;;;;;19.13;58.97;99504.31;7392966;19;20340;-79
2023/10/30 11:27:25;;;;;;;4.07;1.02;;;;;;;19.10;58.76;99511.00;7395897;19;20377;-79
2023/10/30 11:29:54;;;;;;;3.37;0.93;;;;;;;19.10;59.16;99511.00;7397219;19;20344;-78
2023/10/30 11:32:23;;;;;;;4.25;1.20;;;;;;;19.06;59.40;99509.94;7393799;19;20377;-78
2023/10/30 11:34:50;;;;;;;3.15;0.90;;;;;;;18.92;59.35;99511.47;7390613;19;20450;-79
2023/10/30 11:37:21;;;;;;;5.35;1.60;;;;;;;18.90;60.75;99505.53;7395313;19;20892;-78